Tiempo atmosférico en la estación meteorológica de Fuerteventura Aeropuerto, Las Palmas (25 m.)



Fecha
DESCASC
Temp. máxima en grados centígrados (hora)
DESCASC
Temp. mínima en grados centígrados (hora)
DESCASC
Temp. media en grados centígrados
DESCASC
Racha de viento máxima en m/sg (hora)
DESCASC
Velocidad máxima media en intervalos de 10 minutos(hora)
DESCASC
Precipitaciones diarias en mm
DESCASC
Precipitaciones de 00:00 a 06:00 en mm
DESCASC
Precipitaciones de 06:00 a 12:00 en mm
DESCASC
Precipitaciones de 12:00 a 18:00 en mm
DESCASC
Precipitaciones de 18:00 a 24:00 en mm
DESCASC
13-01-2021 20.1 (13:50) 15.1 (23:50) 17.6 11.39 (03:00) 8.89 (04:20) 0 0 0 0 0
12-01-2021 19.3 (12:30) 13.8 (01:50) 16.5 11.67 (21:20) 8.06 (23:50) 1.2 0.5 0 0.7 0
11-01-2021 19.2 (13:10) 12.9 (03:30) 16.1 14.44 (13:40) 10.83 (13:30) 0.2 0 0.2 0 0
10-01-2021 19.9 (15:50) 13.7 (23:59) 16.8 15 (11:20) 9.72 (14:20) 1.3 0 0 0.2 1.1
09-01-2021 18.9 (15:30) 12.4 (00:00) 15.6 14.44 (17:00) 10.83 (12:20) 1.7 0.6 0.1 1 0
08-01-2021 21.2 (12:20) 16 (00:00) 18.6 20 (00:40) 15.83 (01:00) 2.9 0.7 1.3 0.9 0
07-01-2021 24.6 (12:00) 19.2 (00:00) 21.9 20 (13:50) 14.17 (12:00) 0.5 0 0 0.2 0.3
06-01-2021 23.9 (14:00) 19.3 (00:00) 21.6 17.5 (15:30) 12.5 (11:00) 1.1 0 1.1 0 0
05-01-2021 25.4 (13:40) 16.2 (00:00) 20.8 12.5 (14:10) 8.06 (00:50) 0 0 0 0 0
04-01-2021 19.1 (13:40) 14.3 (00:00) 16.7 9.72 (15:50) 7.5 (15:50) 0 0 0 0 0
03-01-2021 20.1 (11:50) 16.1 (00:00) 18.1 9.72 (00:20) 7.78 (02:30) 0 0 0 0 0
02-01-2021 20.4 (12:50) 15.6 (00:00) 18 11.39 (04:30) 8.61 (17:50) 0 0 0 0 0
01-01-2021 20.6 (14:10) 15.9 (00:00) 18.3 13.89 (06:10) 10.83 (11:10) 0 0 0 0 0
31-12-2020 21.3 (14:30) 13.6 (00:00) 17.4 13.33 (14:10) 10 (13:40) 0 0 0 0 0
30-12-2020 20.1 (14:30) 14.3 (00:00) 17.2 9.17 (08:40) 6.39 (08:40) 2.3 0 2.3 0 0
29-12-2020 20.8 (13:40) 16.7 (00:00) 18.8 8.33 (05:30) 6.67 (05:40) 0 0 0 0 0
28-12-2020 21.8 (13:20) 16.6 (00:00) 19.2 9.17 (17:40) 7.5 (17:40) 0 0 0 0 0
27-12-2020 21.6 (16:00) 16.3 (00:00) 18.9 8.89 (20:50) 5.83 (05:00) 0 0 0 0 0
26-12-2020 -- (--) -- (--) -- 7.22 (00:50) 3.89 (00:10) 0 0 0 0 0
25-12-2020 21.3 (14:00) 17.5 (00:00) 19.4 13.33 (00:40) 10.83 (00:10) 0 0 0 0 0
24-12-2020 21.1 (14:50) 19.3 (00:00) 20.2 15.28 (09:30) 11.94 (09:30) 0 0 0 0 0
23-12-2020 22.1 (14:50) 14.1 (00:00) 18.1 15.28 (10:30) 11.39 (08:50) 0 0 0 0 0
22-12-2020 21.2 (14:00) 15.7 (00:00) 18.5 7.78 (21:50) 5 (04:10) 0 0 0 0 0
21-12-2020 21.6 (13:00) 17.3 (00:00) 19.4 9.17 (01:50) 7.5 (01:50) 0 0 0 0 0
20-12-2020 21.4 (14:40) 15.9 (00:00) 18.6 11.39 (20:00) 7.78 (20:00) 0.2 0 0 0 0.2
19-12-2020 21.9 (14:50) 16.9 (00:00) 19.4 10.83 (10:30) 8.33 (10:50) 0 0 0 0 0
18-12-2020 21.7 (13:10) 16.6 (00:00) 19.2 10.83 (10:00) 8.33 (10:00) 0 0 0 0 0

Gráficas

Temp. máximas Temp. mínimas Temp. medias Precipitaciones Rachas de viento máximas Velocidades máximas media en intervalos de 10 minutos

Datos horarios

Fecha y hora oficial Temperatura (ºC) Velocidad del viento (km/h) Dirección del viento Racha (km/h) Dirección de racha Precipitación (mm) Presión (hPa) Tendencia (hPa) Humedad (%)
2021-01-16 23:00:00 16.9 22 Norte 35 Norte 0 1022.4 0.8 67
2021-01-16 22:00:00 17 26 Nordeste 41 Nordeste 0 1022.2 1 65
2021-01-16 21:00:00 17.3 27 Norte 39 Nordeste 0 1021.7 0.9 66
2021-01-16 20:00:00 17.2 26 Nordeste 42 Norte 0 1021.6 1 65
2021-01-16 19:00:00 17.4 33 Nordeste 42 Nordeste 0 1021.2 0.6 63
2021-01-16 18:00:00 18 31 Nordeste 42 Nordeste 0 1020.8 0.3 67
2021-01-16 17:00:00 19 31 Nordeste 41 Nordeste 0 1020.6 -0.3 60
2021-01-16 16:00:00 19.4 28 Nordeste 35 Nordeste 0 1020.6 -1.4 58
2021-01-16 15:00:00 20 28 Nordeste 39 Nordeste 0 1020.5 -2.5 54
2021-01-16 14:00:00 20.2 28 Nordeste 37 Nordeste 0 1020.9 -1.8 56
2021-01-16 13:00:00 19.7 29 Nordeste 37 Nordeste 0 1022 -0.1 57
2021-01-16 12:00:00 19 28 Nordeste 41 Nordeste 0 1023 -- 62
2021-01-16 11:00:00 19.3 35 Nordeste 48 Nordeste 0 1022.7 -- 58
2021-01-16 10:00:00 19 36 Nordeste 48 Nordeste 0 1022.1 -- 58
2021-01-16 09:00:00 17.8 37 Nordeste 50 Nordeste 0 1021.6 -- 61
2021-01-16 08:00:00 17.1 32 Nordeste 50 Nordeste 0 1021.5 -- 67
2021-01-16 07:00:00 17.1 37 Nordeste 48 Nordeste 0 1021.4 -- 66
2021-01-16 06:00:00 16.9 28 Nordeste 46 Norte 0 1021.4 -- 64
2021-01-16 05:00:00 16.7 32 Nordeste 46 Nordeste 0 1021.3 -- 64
2021-01-16 04:00:00 16.8 33 Nordeste 50 Nordeste 0 1021.4 -- 63
2021-01-16 03:00:00 17 34 Nordeste 48 Nordeste 0 1021.7 -- 66
2021-01-16 02:00:00 16.6 29 Nordeste 48 Norte 0 1022.3 -- 63
2021-01-16 01:00:00 16.8 34 Nordeste 45 Nordeste 0 1022 -- 62
2021-01-16 00:00:00 17 36 Nordeste 46 Nordeste 0 1022.4 -- 64
2021-01-15 23:00:00 17 35 Nordeste 48 Nordeste 0 1022.8 -- 63
2021-01-15 22:00:00 17 28 Nordeste 46 Nordeste 0 1022.6 -- 60
2021-01-15 21:00:00 17 32 Norte 45 Norte 0 1022.6 -- 60
2021-01-15 20:00:00 17.5 38 Nordeste 48 Nordeste 0 1022.3 -- 62
2021-01-15 19:00:00 17.4 28 Norte 46 Norte 0 1022.3 -- 58
2021-01-15 18:00:00 18.2 30 Nordeste 41 Nordeste 0 1022.2 -- 58
2021-01-15 17:00:00 18.1 31 Nordeste 42 Nordeste 0 1021.9 -- 54
2021-01-15 16:00:00 19.1 33 Nordeste 41 Nordeste 0 1021.7 -- 59
2021-01-15 15:00:00 19.4 33 Nordeste 42 Nordeste 0 1021.8 -- 54
2021-01-15 14:00:00 19 35 Nordeste 45 Norte 0 1022.3 -- 60
2021-01-15 13:00:00 19 26 Nordeste 41 Nordeste 0 1023.3 -- 58
2021-01-15 12:00:00 18.4 38 Norte 52 Nordeste 0 1024.1 -- 53
2021-01-15 11:00:00 17.9 36 Norte 46 Nordeste 0 1024.5 -- 59
2021-01-15 10:00:00 17.9 31 Nordeste 50 Nordeste 0 1024 -- 58
2021-01-15 09:00:00 17.3 34 Nordeste 45 Norte 0 1023.4 -- 60
2021-01-15 08:00:00 16.9 38 Nordeste 48 Nordeste 0 1023 -- 59
2021-01-15 07:00:00 16.6 33 Nordeste 50 Nordeste 0 1022.6 -- 59
2021-01-15 06:00:00 16.9 32 Nordeste 45 Nordeste 0 1022.6 -- 61
2021-01-15 05:00:00 16.8 32 Nordeste 45 Nordeste 0 1022.6 -- 58
2021-01-15 04:00:00 16.5 24 Norte 50 Norte 0 1023.1 -- 58
2021-01-15 03:00:00 16.6 33 Nordeste 52 Nordeste 0 1023.2 -- 59
2021-01-15 02:00:00 16.9 32 Nordeste 46 Nordeste 0 1023.4 -- 63
2021-01-15 01:00:00 16.7 38 Norte 50 Norte 0 1023.9 -- 56
2021-01-15 00:00:00 16.7 36 Nordeste 52 Nordeste 0 1024.2 -- 57
2021-01-14 23:00:00 16.8 28 Norte 46 Nordeste 0 1024.1 -- 57
2021-01-14 22:00:00 16.7 37 Norte 46 Nordeste 0 1024.3 -- 60
2021-01-14 21:00:00 17.5 37 Nordeste 50 Nordeste 0 1023.9 -- 59
2021-01-14 20:00:00 17.3 30 Nordeste 39 Nordeste 0 1023.9 -- 69
2021-01-14 19:00:00 17.3 26 Nordeste 35 Norte 0 1024 -- 66
2021-01-14 18:00:00 17.7 31 Nordeste 39 Nordeste 0 1023.7 -- 61
2021-01-14 17:00:00 18.4 26 Nordeste 35 Nordeste 0 1023.7 -- 55
2021-01-14 16:00:00 18.8 26 Nordeste 37 Nordeste 0 1023.6 -- 53
2021-01-14 15:00:00 19.5 26 Nordeste 37 Nordeste 0 1023.7 -- 54
2021-01-14 14:00:00 19.6 25 Nordeste 37 Nordeste 0 1024.3 -- 55
2021-01-14 13:00:00 19.4 26 Nordeste 35 Nordeste 0 1025 -- 56
2021-01-14 12:00:00 19.9 27 Nordeste 33 Nordeste 0 1025.8 -- 57
2021-01-14 11:00:00 19 24 Nordeste 33 Nordeste 0 1026.4 -- 59
2021-01-14 10:00:00 17.8 25 Nordeste 32 Nordeste 0 1026.1 -- 62
2021-01-14 09:00:00 17.1 22 Nordeste 32 Nordeste 0 1025.6 -- 66
2021-01-14 08:00:00 16.7 21 Nordeste 30 Nordeste 0 1025 -- 69
2021-01-14 07:00:00 16.7 22 Nordeste 33 Nordeste 0 1024.6 -- 68
2021-01-14 06:00:00 16.8 23 Nordeste 32 Nordeste 0 1024.2 -- 69
2021-01-14 05:00:00 14.6 13 Norte 30 Nordeste 0 1024 -- 72
2021-01-14 04:00:00 14.8 15 Norte 22 Noroeste 0 1024.4 -- 70
2021-01-14 03:00:00 15.1 14 Norte 22 Norte 0 1024.5 -- 68
2021-01-14 02:00:00 14.9 16 Noroeste 22 Noroeste 0 1024.7 -- 67
2021-01-14 01:00:00 14.7 15 Noroeste 18 Norte 0 1024.9 -- 65
2021-01-14 00:00:00 15.1 14 Noroeste 22 Norte 0 1025 -- 59
2021-01-13 23:00:00 15.3 13 Norte 22 Noroeste 0 1025.1 -- 59
2021-01-13 22:00:00 16 11 Norte 24 Nordeste 0 1025 -- 58
2021-01-13 21:00:00 17.3 14 Nordeste 24 Nordeste 0 -- -- 57
2021-01-13 20:00:00 17.5 17 Nordeste 24 Este 0 1024.3 -- 59
2021-01-13 19:00:00 17.8 16 Nordeste 22 Nordeste 0 1023.9 -- 56
2021-01-13 18:00:00 18.7 14 Nordeste 21 Nordeste 0 1023.5 -- 47
2021-01-13 17:00:00 19.4 12 Este 18 Este 0 1023.2 -- 35
2021-01-13 16:00:00 19.7 14 Este 21 Este 0 1023.1 -- 35
2021-01-13 15:00:00 19.9 14 Este 18 Este 0 1023.1 -- 37
2021-01-13 14:00:00 19.9 14 Este 22 Este 0 1023.3 -- 41
2021-01-13 13:00:00 19.7 16 Este 24 Nordeste 0 1023.7 -- 48
2021-01-13 12:00:00 19.4 17 Nordeste 26 Este 0 1024.5 -- 60
2021-01-13 11:00:00 19.4 18 Este 26 Nordeste 0 1024.9 -- 59
2021-01-13 10:00:00 18.7 17 Nordeste 28 Nordeste 0 1024.5 -- 62
2021-01-13 09:00:00 17.5 22 Nordeste 32 Nordeste 0 1023.9 -- 69
2021-01-13 08:00:00 16.6 24 Nordeste 33 Nordeste 0 1023.4 -- 70
2021-01-13 07:00:00 16.4 25 Nordeste 35 Nordeste 0 1022.9 -- 69
2021-01-13 06:00:00 16.3 27 Nordeste 39 Nordeste 0 1022.5 -- 67
2021-01-13 05:00:00 16.3 30 Nordeste 41 Nordeste 0 1022.2 -- 68
2021-01-13 04:00:00 16.3 31 Nordeste 41 Nordeste 0 1022.2 -- 70
2021-01-13 03:00:00 15.7 23 Norte 41 Nordeste 0 1022.4 -- 73
2021-01-13 02:00:00 15.3 18 Norte 39 Norte 0 1022.5 -- 74
2021-01-13 01:00:00 16.1 28 Nordeste 39 Nordeste 0 1022.6 -- 68
2021-01-13 00:00:00 16.2 28 Nordeste 39 Nordeste 0 1022.7 -- 65
2021-01-12 23:00:00 16.1 27 Nordeste 33 Nordeste 0 1022.8 -- 64
2021-01-12 22:00:00 16.4 27 Nordeste 42 Nordeste 0 1022.4 -- 64
2021-01-12 21:00:00 16.6 26 Nordeste 35 Nordeste 0 1022.1 -- 66
2021-01-12 20:00:00 16.8 27 Nordeste 35 Nordeste 0 1021.5 -- 66
2021-01-12 19:00:00 16.8 24 Nordeste 33 Nordeste 0 1020.9 -- 66
2021-01-12 18:00:00 17.1 23 Nordeste 32 Nordeste 0 1020.5 -- 64
2021-01-12 17:00:00 17.5 20 Nordeste 30 Este 0 1020.4 -- 63
2021-01-12 16:00:00 17.7 19 Nordeste 30 Nordeste 0 1020.1 -- 64
2021-01-12 15:00:00 17.4 19 Nordeste 33 Norte 0.7 1020.1 -- 65
2021-01-12 14:00:00 19 24 Nordeste 32 Norte 0 1020.6 -- 59
2021-01-12 13:00:00 18.6 23 Nordeste 32 Este 0 1021.5 -- 61
2021-01-12 12:00:00 18.6 13 Nordeste 24 Nordeste 0 1022.1 -- 53
2021-01-12 11:00:00 18 18 Norte 28 Nordeste 0 1022.5 -- 59
2021-01-12 10:00:00 16.7 11 Noroeste 28 Nordeste 0 1022.2 -- 68
2021-01-12 09:00:00 16 22 Nordeste 30 Nordeste 0 1021.5 -- 68
2021-01-12 08:00:00 15.1 9 Norte 26 Nordeste 0 1020.4 -- 74
2021-01-12 07:00:00 15.6 19 Nordeste 32 Nordeste 0 1020 -- 72
2021-01-12 06:00:00 15.7 28 Nordeste 33 Nordeste 0 1019.8 -- 71
2021-01-12 05:00:00 14.4 14 Noroeste 24 Norte 0 1019.9 -- 78
2021-01-12 04:00:00 15.4 19 Nordeste 26 Nordeste 0 1020.1 -- 77
2021-01-12 03:00:00 14.5 9 Oeste 21 Norte 0.5 1020.5 -- 83
2021-01-12 02:00:00 14.4 12 Norte 22 Norte 0 1020.5 -- 77
2021-01-12 01:00:00 14.3 15 Noroeste 21 Noroeste 0 1020.5 -- 76
2021-01-12 00:00:00 14 13 Norte 22 Norte 0 1020.7 -- 75
2021-01-11 23:00:00 14.5 16 Norte 28 Norte 0 1021 -- 73
2021-01-11 22:00:00 14.7 17 Noroeste 21 Noroeste 0 1020.8 -- 72
2021-01-11 21:00:00 15.2 14 Norte 28 Norte 0 1020.4 -- 71
2021-01-11 20:00:00 15.7 22 Norte 32 Norte 0 1019.9 -- 68
2021-01-11 19:00:00 16.2 20 Norte 33 Norte 0 1019 -- 63
2021-01-11 18:00:00 16.7 18 Nordeste 39 Nordeste 0 1018.5 -- 75
2021-01-11 17:00:00 17.5 25 Nordeste 39 Nordeste 0 1018.2 -- 70
2021-01-11 16:00:00 17.7 29 Nordeste 37 Nordeste 0 1018.2 -- 65
2021-01-11 15:00:00 17.5 16 Nordeste 33 Noroeste 0 1018.1 -- 70
2021-01-11 14:00:00 17.4 32 Noroeste 52 Norte 0 1018.5 -- 61
2021-01-11 13:00:00 19 23 Norte 39 Norte 0 1019.1 -- 55
2021-01-11 12:00:00 17.5 22 Norte 48 Norte 0.2 1020.1 -- 72
2021-01-11 11:00:00 17.7 22 Norte 30 Norte 0 1020.5 -- 67
2021-01-11 10:00:00 16.8 24 Norte 32 Norte 0 1020.3 -- 70
2021-01-11 09:00:00 14.6 17 Noroeste 28 Noroeste 0 1019.7 -- 74
2021-01-11 08:00:00 13.3 12 Noroeste 33 Oeste 0 1019.3 -- 80
2021-01-11 07:00:00 13.4 14 Norte 28 Noroeste 0 1018.8 -- 77
2021-01-11 06:00:00 13.6 17 Noroeste 33 Norte 0 1018.4 -- 75
2021-01-11 05:00:00 13.5 15 Noroeste 22 Noroeste 0 1018.1 -- 72
2021-01-11 04:00:00 13.2 17 Noroeste 24 Noroeste 0 1018.3 -- 67
2021-01-11 03:00:00 13.6 19 Noroeste 24 Noroeste 0 1018.8 -- 70
2021-01-11 02:00:00 13.4 15 Noroeste 22 Noroeste 0 1018.6 -- 72
2021-01-11 01:00:00 13.7 17 Noroeste 30 Norte 0 1018.5 -- 72
2021-01-11 00:00:00 13.8 15 Noroeste 33 Norte 0 1018.9 -- 74
2021-01-10 23:00:00 14.6 21 Norte 28 Norte 0 1018.9 -- 71
2021-01-10 22:00:00 14.5 24 Norte 33 Norte 0 1019 -- 76
2021-01-10 21:00:00 14.2 23 Norte 42 Norte 0.1 1018.8 -- 84
2021-01-10 20:00:00 14.2 27 Norte 41 Norte 0.3 1018.3 -- 86
2021-01-10 19:00:00 15.5 19 Noroeste 41 Norte 0.7 1017.5 -- 80
2021-01-10 18:00:00 16.2 29 Norte 45 Norte 0.2 1017.3 -- 76
2021-01-10 17:00:00 18.1 33 Noroeste 50 Noroeste 0 1017.1 -- 63
2021-01-10 16:00:00 18.9 33 Noroeste 48 Noroeste 0 1017 -- 56
2021-01-10 15:00:00 19.2 32 Noroeste 48 Noroeste 0 1016.9 -- 58
2021-01-10 14:00:00 19.2 32 Noroeste 52 Noroeste 0 1017 -- 55
2021-01-10 13:00:00 18.6 28 Noroeste 48 Noroeste 0 1018.1 -- 58
2021-01-10 12:00:00 19 23 Noroeste 54 Noroeste 0 1018.7 -- 53
2021-01-10 11:00:00 18.1 27 Noroeste 45 Norte 0 1019.2 -- 53
2021-01-10 10:00:00 18.2 25 Noroeste 37 Noroeste 0 1018.8 -- 53
2021-01-10 09:00:00 15.9 21 Norte 33 Norte 0 1018.1 -- 64
2021-01-10 08:00:00 14.8 20 Noroeste 32 Noroeste 0 1017.4 -- 67
2021-01-10 07:00:00 14.5 14 Norte 32 Noroeste 0 1016.8 -- 58
2021-01-10 06:00:00 14.7 14 Noroeste 30 Norte 0 1016.4 -- 63
2021-01-10 05:00:00 15 18 Noroeste 45 Noroeste 0 1016.7 -- 68
2021-01-10 04:00:00 15 18 Noroeste 26 Noroeste 0 1016.8 -- 69
2021-01-10 03:00:00 14.7 17 Noroeste 24 Noroeste 0 1017 -- 69
2021-01-10 02:00:00 14.5 12 Noroeste 30 Noroeste 0 1017.1 -- 66
2021-01-10 01:00:00 14.8 22 Noroeste 39 Norte 0 1017.7 -- 63
2021-01-10 00:00:00 14.8 24 Noroeste 35 Noroeste 0 1018 -- 63
2021-01-09 23:00:00 14.5 15 Noroeste 28 Norte 0 1018.1 -- 64
2021-01-09 22:00:00 14.7 19 Noroeste 28 Norte 0 1017.7 -- 59
2021-01-09 21:00:00 14.9 18 Norte 33 Noroeste 0 1017.5 -- 63
2021-01-09 20:00:00 15.3 23 Norte 42 Norte 0 1016.9 -- 60
2021-01-09 19:00:00 15.8 23 Norte 41 Norte 0 1016.5 -- 56
2021-01-09 18:00:00 16.3 28 Norte 48 Norte 0 1016 -- 57
2021-01-09 17:00:00 17.7 37 Norte 52 Norte 0 1015.7 -- 50
2021-01-09 16:00:00 17.3 32 Norte 48 Norte 0 1015.2 -- 60
2021-01-09 15:00:00 18.4 32 Noroeste 46 Noroeste 0 1014.6 -- 50
2021-01-09 14:00:00 17 30 Norte 46 Norte 0 1014.4 -- 63
2021-01-09 13:00:00 16.4 29 Norte 50 Norte 1 1015.1 -- 75
2021-01-09 12:00:00 18.1 27 Norte 42 Noroeste 0.1 1015.4 -- 56
2021-01-09 11:00:00 17.5 29 Norte 45 Norte 0 1015.9 -- 65
2021-01-09 10:00:00 16.6 18 Noroeste 35 Noroeste 0 1015.2 -- 65
2021-01-09 09:00:00 15.2 14 Noroeste 24 Norte 0 1014.5 -- 73
2021-01-09 08:00:00 13.6 17 Noroeste 26 Noroeste 0 1013.8 -- 74
2021-01-09 07:00:00 13.6 18 Norte 26 Noroeste 0 1013 -- 80
2021-01-09 06:00:00 13.1 12 Noroeste 21 Noroeste 0 1012.5 -- 76
2021-01-09 05:00:00 12.5 9 Sudoeste 13 Sudoeste 0 1012.2 -- 83
2021-01-09 04:00:00 13.4 6 Noroeste 17 Norte 0 1012.6 -- 81
2021-01-09 03:00:00 13.9 11 Oeste 42 Noroeste 0.6 1012.5 -- 79
2021-01-09 02:00:00 14.1 10 Oeste 17 Noroeste 0 1012 -- 73
2021-01-09 01:00:00 15.2 9 Noroeste 17 Norte 0 1012.1 -- 72
2021-01-09 00:00:00 16 14 Noroeste 24 Norte 0 1012 -- 69
2021-01-08 23:00:00 16.1 9 Norte 17 Nordeste 0 1011.9 -- 76
2021-01-08 22:00:00 16.6 13 Norte 26 Norte 0 1011.7 -- 71
2021-01-08 21:00:00 16.8 14 Noroeste 28 Noroeste 0 1011 -- 64
2021-01-08 20:00:00 17.2 19 Noroeste 32 Norte 0 1010.4 -- 64
2021-01-08 19:00:00 17.6 16 Norte 30 Norte 0 1009.4 -- 66
2021-01-08 18:00:00 18 22 Norte 41 Norte 0 1008.6 -- 65
2021-01-08 17:00:00 18.1 27 Norte 46 Norte 0 1007.8 -- 71
2021-01-08 16:00:00 18.7 25 Noroeste 45 Noroeste 0 1007.1 -- 64
2021-01-08 15:00:00 18.1 20 Noroeste 46 Noroeste 0.1 1007 -- 77
2021-01-08 14:00:00 18.9 25 Noroeste 45 Noroeste 0.1 1006.4 -- 71
2021-01-08 13:00:00 19.3 28 Noroeste 54 Noroeste 0.7 1006.4 -- 76
2021-01-08 12:00:00 20.7 38 Oeste 54 Oeste 0 1006.1 -- 62
2021-01-08 11:00:00 20.4 39 Oeste 52 Oeste 0 1006 -- 67
2021-01-08 10:00:00 19.6 30 Oeste 50 Oeste 0 1005.3 -- 72
2021-01-08 09:00:00 19.1 37 Oeste 54 Oeste 0 1004 -- 76
2021-01-08 08:00:00 18.5 37 Oeste 58 Oeste 0 1002.5 -- 79
2021-01-08 07:00:00 18.9 33 Oeste 65 Oeste 1.3 1001.2 -- 78
2021-01-08 06:00:00 20.1 32 Oeste 52 Oeste 0.5 1000.2 -- 74
2021-01-08 05:00:00 20 33 Oeste 59 Sudoeste 0 1000 -- 78
2021-01-08 04:00:00 20.3 42 Sudoeste 67 Sudoeste 0 999.8 -- 78
2021-01-08 03:00:00 20.5 44 Sudoeste 65 Sudoeste 0 999.5 -- 78
2021-01-08 02:00:00 20.4 37 Sudoeste 72 Sur 0 999.6 -- 80
2021-01-08 01:00:00 20.9 57 Sudoeste 72 Sudoeste 0.2 1000 -- 81
2021-01-08 00:00:00 20.9 43 Sudoeste 65 Sudoeste 0 1001.1 -- 79
2021-01-07 23:00:00 21 37 Sudoeste 67 Sudoeste 0.1 1001.6 -- 82
2021-01-07 22:00:00 21.3 41 Sudoeste 61 Sudoeste 0 1001.9 -- 80
2021-01-07 21:00:00 21.3 33 Sudoeste 61 Sur 0.2 1001.8 -- 83
2021-01-07 20:00:00 21.9 41 Sudoeste 68 Sudoeste 0 1001.7 -- 75
2021-01-07 19:00:00 21.8 33 Sudoeste 54 Sudoeste 0 1001.6 -- 77
2021-01-07 18:00:00 22.1 30 Sudoeste 55 Sudoeste 0 1001.6 -- 77
2021-01-07 17:00:00 22.9 30 Sudoeste 55 Sudoeste 0 1001.6 -- 71
2021-01-07 16:00:00 23.5 41 Sudoeste 61 Sudoeste 0 1001.4 -- 65
2021-01-07 15:00:00 22.6 44 Sudoeste 68 Sur 0.2 1001.3 -- 81
2021-01-07 14:00:00 22.9 40 Sudoeste 72 Sudoeste 0 1001.6 -- 72
2021-01-07 13:00:00 23.3 38 Sudoeste 65 Sudoeste 0 1002.1 -- 71
2021-01-07 12:00:00 24.4 51 Sudoeste 67 Sudoeste 0 1003.3 -- 66
2021-01-07 11:00:00 23.5 44 Sudoeste 65 Sudoeste 0 1003.4 -- 70
2021-01-07 10:00:00 22.4 47 Sudoeste 68 Sudoeste 0 1003.2 -- 73
2021-01-07 09:00:00 21.4 32 Sudoeste 54 Sudoeste 0 1003 -- 76
2021-01-07 08:00:00 20.8 31 Sudoeste 52 Sudoeste 0 1002.4 -- 78
2021-01-07 07:00:00 20.5 30 Sudoeste 46 Sur 0 1002.6 -- 81
2021-01-07 06:00:00 20.5 31 Sudoeste 46 Sudoeste 0 1002.4 -- 81
2021-01-07 05:00:00 20.6 22 Sudoeste 33 Sudoeste 0 1002.6 -- 83
2021-01-07 04:00:00 19.7 18 Sur 28 Sur 0 1002.9 -- 87
2021-01-07 03:00:00 20 15 Sudoeste 32 Sudoeste 0 1003.7 -- 85
2021-01-07 02:00:00 20.3 22 Sudoeste 32 Sudoeste 0 1003.7 -- 85
2021-01-07 01:00:00 20.3 18 Sudoeste 30 Sudoeste 0 1004.3 -- 84
2021-01-07 00:00:00 20.6 22 Sudoeste 32 Sudoeste 0 1004.3 -- 84
2021-01-06 23:00:00 20.8 22 Sudoeste 35 Sudoeste 0 1004.1 -- 84
2021-01-06 22:00:00 21 18 Sudoeste 37 Sudoeste 0 1004.3 -- 83
2021-01-06 21:00:00 21.3 22 Sudoeste 33 Sudoeste 0 1004.1 -- 83
2021-01-06 20:00:00 21.4 21 Sudoeste 35 Sudoeste 0 1004 -- 83
2021-01-06 19:00:00 21.5 24 Sudoeste 48 Oeste 0 1003.5 -- 84
2021-01-06 18:00:00 21.9 34 Oeste 54 Sudoeste 0 1002.6 -- 83
2021-01-06 17:00:00 22.8 41 Sudoeste 59 Sudoeste 0 1002.5 -- 75
2021-01-06 16:00:00 23.2 36 Sudoeste 63 Sudoeste 0 1002 -- 72
2021-01-06 15:00:00 23.4 39 Sudoeste 58 Sudoeste 0 1001.6 -- 72
2021-01-06 14:00:00 23.7 37 Sudoeste 59 Sudoeste 0 1001.9 -- 71
2021-01-06 13:00:00 23.3 37 Sudoeste 61 Sudoeste 0 1002.9 -- 73
2021-01-06 12:00:00 22.5 37 Sudoeste 61 Sudoeste 0 1003.9 -- 78
2021-01-06 11:00:00 22.3 45 Sudoeste 59 Sudoeste 0.9 1004.7 -- 79
2021-01-06 10:00:00 21.2 33 Sudoeste 55 Sudoeste 0.2 1005.1 -- 80
2021-01-06 09:00:00 21.2 36 Sudoeste 50 Sudoeste 0 1004.5 -- 77
2021-01-06 08:00:00 20.6 39 Sudoeste 54 Sudoeste 0 1003.9 -- 77
2021-01-06 07:00:00 20.6 36 Sudoeste 48 Sudoeste 0 1003.6 -- 77
2021-01-06 06:00:00 20.4 30 Sudoeste 46 Sudoeste 0 1003.3 -- 78
2021-01-06 05:00:00 19.8 22 Sudoeste 39 Sudoeste 0 1004 -- 79
2021-01-06 04:00:00 19.6 12 Sur 30 Sudoeste 0 1004.5 -- 82
2021-01-06 03:00:00 19.6 17 Sudoeste 28 Sudoeste 0 1005.3 -- 83
2021-01-06 02:00:00 19.7 19 Sudoeste 26 Sudoeste 0 1005.8 -- 84
2021-01-06 01:00:00 19.9 14 Sudoeste 21 Sudoeste 0 1006.3 -- 85
2021-01-06 00:00:00 20 11 Sur 15 Sur 0 1006.8 -- 85
2021-01-05 23:00:00 19.3 2 Sur 13 Sudoeste 0 1007.3 -- 75
2021-01-05 22:00:00 19.2 9 Sudoeste 17 Oeste 0 1007.8 -- 74
2021-01-05 21:00:00 20.1 3 Oeste 18 Oeste 0 1007.3 -- 71
2021-01-05 20:00:00 20.7 0 Calma 15 Noroeste 0 1007.4 -- 70
2021-01-05 19:00:00 21.5 15 Noroeste 30 Oeste 0 1006.9 -- 68
2021-01-05 18:00:00 22.6 8 Noroeste 24 Noroeste 0 1006.7 -- 65
2021-01-05 17:00:00 23.3 6 Sudeste 18 Sudeste 0 1006.3 -- 70
2021-01-05 16:00:00 24.4 10 Sudeste 28 Oeste 0 1005.7 -- 62
2021-01-05 15:00:00 24.9 17 Noroeste 45 Noroeste 0 1005.6 -- 51
2021-01-05 14:00:00 25.2 23 Oeste 33 Oeste 0 1006 -- 53
2021-01-05 13:00:00 24.8 19 Oeste 33 Oeste 0 1006.6 -- 54
2021-01-05 12:00:00 24.1 20 Oeste 35 Oeste 0 1007.6 -- 56
2021-01-05 11:00:00 22.7 21 Oeste 41 Oeste 0 1008.5 -- 61
2021-01-05 10:00:00 21.5 15 Sudoeste 24 Sudoeste 0 1008.7 -- 73
2021-01-05 09:00:00 19.8 10 Sudoeste 22 Oeste 0 1007.8 -- 80
2021-01-05 08:00:00 18.7 18 Oeste 28 Oeste 0 1007.6 -- 84
2021-01-05 07:00:00 19 22 Oeste 30 Oeste 0 1007.1 -- 83
2021-01-05 06:00:00 18.7 23 Oeste 30 Sudoeste 0 1006.6 -- 85
2021-01-05 05:00:00 18.8 22 Sudoeste 32 Sudoeste 0 1006.9 -- 84
2021-01-05 04:00:00 18.6 26 Sudoeste 37 Sudoeste 0 1007 -- 81
2021-01-05 03:00:00 18.4 29 Sudoeste 37 Sudoeste 0 1007.5 -- 81
2021-01-05 02:00:00 17.5 20 Sudoeste 32 Sudoeste 0 1008.1 -- 79
2021-01-05 01:00:00 17.6 26 Sudoeste 37 Sudoeste 0 1007.9 -- 73
2021-01-05 00:00:00 16.5 4 Sudeste 24 Sudoeste 0 1008.2 -- 76
2021-01-04 23:00:00 16.4 21 Sudoeste 24 Sudoeste 0 1008.7 -- 75
2021-01-04 22:00:00 16.9 8 Sudoeste 22 Sur 0 1009.1 -- 73
2021-01-04 21:00:00 17.3 11 Sudoeste 32 Sudoeste 0 1009.2 -- 71
2021-01-04 20:00:00 17.7 14 Sudoeste 18 Sudoeste 0 1009.4 -- 69
2021-01-04 19:00:00 17.7 13 Sur 28 Sur 0 1009.3 -- 69
2021-01-04 18:00:00 17.9 23 Sur 32 Sur 0 1009.2 -- 71
2021-01-04 17:00:00 18.4 27 Sur 33 Sur 0 1008.9 -- 70
2021-01-04 16:00:00 18.5 27 Sur 35 Sur 0 1008.6 -- 70
2021-01-04 15:00:00 18.7 22 Sur 30 Sur 0 1009.2 -- 68
2021-01-04 14:00:00 18.9 17 Sudeste 26 Sudeste 0 1009.6 -- 64
2021-01-04 13:00:00 18.9 17 Sudeste 22 Sudeste 0 1010.5 -- 64
2021-01-04 12:00:00 18.4 13 Sudeste 18 Sudeste 0 1011.5 -- 64
2021-01-04 11:00:00 18.4 13 Sudeste 18 Sudeste 0 1012.1 -- 64
2021-01-04 10:00:00 17.2 9 Sur 15 Oeste 0 1012 -- 68
2021-01-04 09:00:00 15.8 9 Oeste -- -- 0 1012.3 -- 72
2021-01-04 08:00:00 14.5 6 Oeste 15 Oeste 0 1011.2 -- 73
2021-01-04 07:00:00 14.3 9 Oeste 13 Oeste 0 1011.4 -- 73
2021-01-04 06:00:00 15.1 10 Noroeste 13 Noroeste 0 1011.9 -- 71
2021-01-04 05:00:00 15.7 10 Oeste 17 Noroeste 0 1011.9 -- 70
2021-01-04 04:00:00 15.7 6 Noroeste 13 Noroeste 0 1011.7 -- 69
2021-01-04 03:00:00 16.9 9 Este 15 Este 0 1011.9 -- 68
2021-01-04 02:00:00 17 12 Este 18 Nordeste 0 1012.3 -- 67
2021-01-04 01:00:00 17 13 Este 21 Este 0 1012.3 -- 67
2021-01-04 00:00:00 17.1 13 Nordeste 21 Nordeste 0 1012.9 -- 67
2021-01-03 23:00:00 17.3 14 Nordeste 22 Nordeste 0 1013.3 -- 66
2021-01-03 22:00:00 17.5 14 Nordeste 21 Nordeste 0 1013.7 -- 66
2021-01-03 21:00:00 17.6 14 Nordeste 22 Este 0 -- -- 67
2021-01-03 20:00:00 17.6 16 Este 26 Este 0 1013.2 -- 67
2021-01-03 19:00:00 17.8 15 Nordeste 24 Nordeste 0 1012.8 -- 65
2021-01-03 18:00:00 17.9 19 Este 26 Este 0 1012.5 -- 64
2021-01-03 17:00:00 18.3 18 Nordeste 26 Nordeste 0 1012.5 -- 65
2021-01-03 16:00:00 18.5 18 Nordeste 26 Nordeste 0 1012.4 -- 58
2021-01-03 15:00:00 18.8 19 Nordeste 26 Nordeste 0 1012.6 -- 58
2021-01-03 14:00:00 19.2 19 Nordeste 28 Nordeste 0 1013 -- 55
2021-01-03 13:00:00 19.3 20 Nordeste 30 Nordeste 0 1014 -- 53
2021-01-03 12:00:00 19.9 19 Nordeste 30 Nordeste 0 1014.7 -- 52
2021-01-03 11:00:00 19.9 23 Nordeste 32 Nordeste 0 1015.1 -- 52
2021-01-03 10:00:00 18.8 25 Nordeste 35 Nordeste 0 1014.9 -- 61
2021-01-03 09:00:00 18.2 23 Nordeste 30 Nordeste 0 1014.1 -- 58
2021-01-03 08:00:00 16.5 13 Norte 17 Norte 0 1013.4 -- 67
2021-01-03 07:00:00 16.2 13 Noroeste 26 Nordeste 0 1013 -- 66
2021-01-03 06:00:00 17.1 17 Nordeste 32 Nordeste 0 1012.8 -- 64
2021-01-03 05:00:00 17.5 25 Nordeste 32 Nordeste 0 1012.7 -- 64
2021-01-03 04:00:00 17.3 24 Nordeste 32 Nordeste 0 1013 -- 64
2021-01-03 03:00:00 17.6 25 Nordeste 35 Nordeste 0 1013 -- 68
2021-01-03 02:00:00 17.4 20 Nordeste 32 Nordeste 0 1013.1 -- 64
2021-01-03 01:00:00 17.5 23 Nordeste 35 Norte 0 1014 -- 64
2021-01-03 00:00:00 17.7 24 Norte 39 Norte 0 1014.3 -- 61
2021-01-02 23:00:00 17.7 22 Norte 30 Nordeste 0 1014.2 -- 61
2021-01-02 22:00:00 17.5 21 Nordeste 35 Nordeste 0 1014.3 -- 58
2021-01-02 21:00:00 17.7 28 Nordeste 39 Nordeste 0 1014.4 -- 58
2021-01-02 20:00:00 18 31 Nordeste 39 Nordeste 0 1014.1 -- 59
2021-01-02 19:00:00 18 28 Nordeste 37 Nordeste 0 1013.8 -- 60
2021-01-02 18:00:00 18.4 31 Nordeste 39 Nordeste 0 1014 -- 59
2021-01-02 17:00:00 18.9 26 Nordeste 32 Nordeste 0 1013.8 -- 59
2021-01-02 16:00:00 19.5 25 Nordeste 35 Nordeste 0 1013.7 -- 56
2021-01-02 15:00:00 20 19 Nordeste 24 Nordeste 0 1013.9 -- 53
2021-01-02 14:00:00 19.8 17 Nordeste 28 Nordeste 0 1014.1 -- 51
2021-01-02 13:00:00 19.9 18 Nordeste 35 Nordeste 0 1015.2 -- 48